createdAt,value
2023-05-23T00:01:39.947Z,24.27
2023-05-23T00:04:07.352Z,23.00
2023-05-23T00:06:34.410Z,22.30
2023-05-23T00:09:02.297Z,22.52
2023-05-23T00:11:29.284Z,23.92
2023-05-23T00:14:01.073Z,24.02
2023-05-23T00:18:57.534Z,19.55
2023-05-23T00:21:24.444Z,25.67
2023-05-23T00:23:51.318Z,23.27
2023-05-23T00:26:18.095Z,21.75
2023-05-23T00:28:46.558Z,20.85
2023-05-23T00:31:13.373Z,24.13
2023-05-23T00:33:40.099Z,25.75
2023-05-23T00:36:07.022Z,18.45
2023-05-23T00:38:33.719Z,22.63
2023-05-23T00:41:02.234Z,26.30
2023-05-23T00:43:29.425Z,24.45
2023-05-23T00:45:56.274Z,19.98
2023-05-23T00:48:23.628Z,21.85
2023-05-23T00:50:51.015Z,24.02
2023-05-23T00:53:18.119Z,21.25
2023-05-23T00:55:45.937Z,23.90
2023-05-23T00:58:15.116Z,25.25
2023-05-23T01:00:44.922Z,25.85
2023-05-23T01:03:17.967Z,18.08
2023-05-23T01:05:45.696Z,30.45
2023-05-23T01:08:12.493Z,25.50
2023-05-23T01:10:39.608Z,21.25
2023-05-23T01:13:37.065Z,25.20
2023-05-23T01:16:13.380Z,30.20
2023-05-23T01:18:48.593Z,27.00
2023-05-23T01:21:19.473Z,22.48
2023-05-23T01:24:38.582Z,23.27
2023-05-23T01:27:30.346Z,25.90
2023-05-23T01:30:02.231Z,21.13
2023-05-23T01:32:29.511Z,23.77
2023-05-23T01:35:00.754Z,20.27
2023-05-23T01:37:29.764Z,21.55
2023-05-23T01:39:56.633Z,21.42
2023-05-23T01:42:23.449Z,22.02
2023-05-23T01:44:52.481Z,20.35
2023-05-23T01:47:20.914Z,20.35
2023-05-23T01:49:48.364Z,23.65
2023-05-23T01:52:16.257Z,18.17
2023-05-23T01:54:44.411Z,19.42
2023-05-23T01:57:11.952Z,20.10
2023-05-23T01:59:39.044Z,23.65
2023-05-23T02:02:06.273Z,23.55
2023-05-23T02:04:33.137Z,25.77
2023-05-23T02:06:59.873Z,22.40
2023-05-23T02:09:26.687Z,22.23
2023-05-23T02:11:53.655Z,21.90
2023-05-23T02:14:21.233Z,20.55
2023-05-23T02:16:48.003Z,19.02
2023-05-23T02:19:14.816Z,28.60
2023-05-23T02:21:41.630Z,19.60
2023-05-23T02:24:08.435Z,23.13
2023-05-23T02:26:35.417Z,20.42
2023-05-23T02:29:02.954Z,22.33
2023-05-23T02:31:30.744Z,20.30
2023-05-23T02:33:57.465Z,20.58
2023-05-23T02:36:24.209Z,20.55
2023-05-23T02:38:51.065Z,21.85
2023-05-23T02:41:17.855Z,22.60
2023-05-23T02:43:47.184Z,19.23
2023-05-23T02:46:15.638Z,14.13
2023-05-23T02:48:43.218Z,13.82
2023-05-23T02:51:10.093Z,12.55
2023-05-23T02:53:37.106Z,15.63
2023-05-23T02:56:04.208Z,15.85
2023-05-23T02:58:31.890Z,13.25
2023-05-23T03:00:58.728Z,14.93
2023-05-23T03:03:25.644Z,11.60
2023-05-23T03:05:52.601Z,12.13
2023-05-23T03:08:19.351Z,12.52
2023-05-23T03:10:46.357Z,13.07
2023-05-23T03:13:13.211Z,15.23
2023-05-23T03:15:40.457Z,17.02
2023-05-23T03:18:07.743Z,14.10
2023-05-23T03:20:34.582Z,11.52
2023-05-23T03:23:02.341Z,9.38
2023-05-23T03:25:29.178Z,12.07
2023-05-23T03:27:56.186Z,12.82
2023-05-23T03:30:23.097Z,13.20
2023-05-23T03:32:50.124Z,16.80
2023-05-23T03:35:17.224Z,14.50
2023-05-23T03:37:44.053Z,14.85
2023-05-23T03:40:11.079Z,12.40
2023-05-23T03:42:39.824Z,16.67
2023-05-23T03:45:09.084Z,17.80
2023-05-23T03:47:36.486Z,14.73
2023-05-23T03:50:03.530Z,19.50
2023-05-23T03:52:30.712Z,21.33
2023-05-23T03:54:57.596Z,23.25
2023-05-23T03:57:24.570Z,16.15
2023-05-23T03:59:52.160Z,20.63
2023-05-23T04:02:20.665Z,23.05
2023-05-23T04:04:47.601Z,16.60
2023-05-23T04:07:15.819Z,17.08
2023-05-23T04:09:43.788Z,17.65
2023-05-23T04:12:12.200Z,18.02
2023-05-23T04:14:39.612Z,18.02
2023-05-23T04:17:09.267Z,20.35
2023-05-23T04:19:36.679Z,18.63
2023-05-23T04:22:03.624Z,23.60
2023-05-23T04:24:30.498Z,19.27
2023-05-23T04:26:57.325Z,18.30
2023-05-23T04:29:26.220Z,24.60
2023-05-23T04:31:54.923Z,22.20
2023-05-23T04:34:22.417Z,22.85
2023-05-23T04:36:49.637Z,21.90
2023-05-23T04:39:16.794Z,22.17
2023-05-23T04:41:59.869Z,24.05
2023-05-23T04:44:45.474Z,22.20
2023-05-23T04:47:19.050Z,20.33
2023-05-23T04:50:07.687Z,26.52
2023-05-23T04:52:34.848Z,22.17
2023-05-23T04:55:02.453Z,27.98
2023-05-23T04:57:29.432Z,26.10
2023-05-23T04:59:57.402Z,23.85
2023-05-23T05:02:27.021Z,25.98
2023-05-23T05:04:53.898Z,30.63
2023-05-23T05:07:20.900Z,23.60
2023-05-23T05:09:48.076Z,24.48
2023-05-23T05:12:14.917Z,27.90
2023-05-23T05:14:41.737Z,23.15
2023-05-23T05:17:08.952Z,24.63
2023-05-23T05:19:48.642Z,20.50
2023-05-23T05:22:15.410Z,24.88
2023-05-23T05:24:42.828Z,22.40
2023-05-23T05:27:11.609Z,23.48
2023-05-23T05:29:38.396Z,21.75
2023-05-23T05:32:08.912Z,24.45
2023-05-23T05:34:37.692Z,20.67
2023-05-23T05:37:04.819Z,20.42
2023-05-23T05:39:31.592Z,24.67
2023-05-23T05:41:59.325Z,21.00
2023-05-23T05:44:27.224Z,32.03
2023-05-23T05:46:55.418Z,27.52
2023-05-23T05:49:22.621Z,24.42
2023-05-23T05:51:49.679Z,22.20
2023-05-23T05:54:19.023Z,23.85
2023-05-23T05:56:48.012Z,26.33
2023-05-23T05:59:15.670Z,25.27
2023-05-23T06:01:42.508Z,23.65
2023-05-23T06:04:09.416Z,31.48
2023-05-23T06:06:36.695Z,24.38
2023-05-23T06:09:03.617Z,23.30
2023-05-23T06:11:30.309Z,21.42
2023-05-23T06:13:57.633Z,27.23
2023-05-23T06:16:24.594Z,24.42
2023-05-23T06:18:51.508Z,21.25
2023-05-23T06:21:18.428Z,23.40
2023-05-23T06:23:49.227Z,24.30
2023-05-23T06:26:16.072Z,20.38
2023-05-23T06:28:42.903Z,19.73
2023-05-23T06:31:12.555Z,35.03
2023-05-23T06:33:39.320Z,30.30
2023-05-23T06:36:06.308Z,27.67
2023-05-23T06:38:36.111Z,21.77
2023-05-23T06:41:03.741Z,24.35
2023-05-23T06:43:31.312Z,20.70
2023-05-23T06:46:21.004Z,27.60
2023-05-23T06:48:48.118Z,24.83
2023-05-23T06:51:16.492Z,28.48
2023-05-23T06:53:43.279Z,27.48
2023-05-23T06:56:10.460Z,25.83
2023-05-23T06:58:48.973Z,33.65
2023-05-23T07:01:16.250Z,29.65
2023-05-23T07:03:47.245Z,26.50
2023-05-23T07:06:14.136Z,32.42
2023-05-23T07:08:41.535Z,26.70
2023-05-23T07:11:09.262Z,30.83
2023-05-23T07:13:45.649Z,23.70
2023-05-23T07:16:20.912Z,25.63
2023-05-23T07:19:03.013Z,31.67
2023-05-23T07:21:30.974Z,26.15
2023-05-23T07:23:57.997Z,23.13
2023-05-23T07:26:27.406Z,28.05
2023-05-23T07:28:55.887Z,24.08
2023-05-23T07:31:23.112Z,23.35
2023-05-23T07:33:56.649Z,22.67
2023-05-23T07:36:29.802Z,21.65
2023-05-23T07:38:56.667Z,22.10
2023-05-23T07:41:23.710Z,26.30
2023-05-23T07:43:50.479Z,20.33
2023-05-23T07:46:17.465Z,17.73
2023-05-23T07:48:45.023Z,17.83
2023-05-23T07:51:13.471Z,22.45
2023-05-23T07:53:40.459Z,17.67
2023-05-23T07:56:10.960Z,15.27
2023-05-23T07:58:40.604Z,15.18
2023-05-23T08:01:08.025Z,12.52
2023-05-23T08:03:59.254Z,12.50
2023-05-23T08:06:35.561Z,8.77
2023-05-23T08:09:06.768Z,13.98
2023-05-23T08:11:37.504Z,9.53
2023-05-23T08:14:04.268Z,5.68
2023-05-23T08:16:49.962Z,9.60
2023-05-23T08:19:21.485Z,6.63
2023-05-23T08:21:49.575Z,5.47
2023-05-23T08:24:16.261Z,5.32
2023-05-23T08:26:44.127Z,3.00
2023-05-23T08:29:14.126Z,3.17
2023-05-23T08:31:42.341Z,3.47
2023-05-23T08:34:11.441Z,4.35
2023-05-23T08:36:40.018Z,4.40
2023-05-23T08:39:11.231Z,3.50
2023-05-23T08:41:45.632Z,3.00
2023-05-23T08:44:13.718Z,6.68
2023-05-23T08:46:49.334Z,2.65
2023-05-23T08:49:27.391Z,6.22
2023-05-23T08:52:02.181Z,5.50
2023-05-23T08:54:32.573Z,7.65
2023-05-23T08:57:00.233Z,4.10
2023-05-23T08:59:30.212Z,4.07
2023-05-23T09:01:58.265Z,2.22
2023-05-23T09:04:25.274Z,3.75
2023-05-23T09:07:00.146Z,7.78
2023-05-23T09:09:29.481Z,2.20
2023-05-23T09:11:59.709Z,5.75
2023-05-23T09:14:30.411Z,4.97
2023-05-23T09:17:04.513Z,10.15
2023-05-23T09:19:32.298Z,6.85
2023-05-23T09:22:14.885Z,9.75
2023-05-23T09:24:57.995Z,11.93
2023-05-23T09:27:24.931Z,6.85
2023-05-23T09:29:51.763Z,9.75
2023-05-23T09:32:21.250Z,9.57
2023-05-23T09:35:05.071Z,13.30
2023-05-23T09:37:37.638Z,11.90
2023-05-23T09:40:13.243Z,15.15
2023-05-23T09:42:45.793Z,17.58
2023-05-23T09:45:13.664Z,15.10
2023-05-23T09:47:49.001Z,19.73
2023-05-23T09:50:15.779Z,12.82
2023-05-23T09:52:42.494Z,17.20
2023-05-23T09:55:10.488Z,13.45
2023-05-23T09:57:41.171Z,13.15
2023-05-23T10:00:16.258Z,12.30
2023-05-23T10:02:54.290Z,12.95
2023-05-23T10:05:44.398Z,11.98
2023-05-23T10:08:22.033Z,16.25
2023-05-23T10:10:57.789Z,14.25
2023-05-23T10:13:28.937Z,19.98
2023-05-23T10:16:09.109Z,16.02
2023-05-23T10:18:43.501Z,14.70
2023-05-23T10:21:12.636Z,15.18
2023-05-23T10:23:39.925Z,20.20
2023-05-23T10:26:07.769Z,13.80
2023-05-23T10:28:34.880Z,12.88
2023-05-23T10:31:02.376Z,12.25
2023-05-23T10:33:36.465Z,14.82
2023-05-23T10:36:10.145Z,17.08
2023-05-23T10:38:42.668Z,13.20
2023-05-23T10:41:21.837Z,13.52
2023-05-23T10:44:07.349Z,14.15
2023-05-23T10:46:58.159Z,21.73
2023-05-23T10:49:43.105Z,13.68
2023-05-23T10:52:12.497Z,13.38
2023-05-23T10:54:48.745Z,13.98
2023-05-23T10:57:25.610Z,17.23
2023-05-23T10:59:52.673Z,13.20
2023-05-23T11:02:25.067Z,9.65
2023-05-23T11:05:24.366Z,13.98
2023-05-23T11:08:13.986Z,11.63
2023-05-23T11:10:56.949Z,14.68
2023-05-23T11:13:23.860Z,23.02
2023-05-23T11:15:51.375Z,16.05
2023-05-23T11:18:23.552Z,14.18
2023-05-23T11:20:54.274Z,18.90
2023-05-23T11:23:22.200Z,14.13
2023-05-23T11:25:51.442Z,15.35
2023-05-23T11:28:18.883Z,13.82
2023-05-23T11:30:49.613Z,10.30
2023-05-23T11:33:17.561Z,18.95
2023-05-23T11:35:48.786Z,14.45
2023-05-23T11:38:16.876Z,7.35
2023-05-23T11:40:46.377Z,15.30
2023-05-23T11:43:17.761Z,8.98
2023-05-23T11:45:46.872Z,21.33
2023-05-23T11:48:16.554Z,9.82
2023-05-23T11:50:51.865Z,8.50
2023-05-23T11:53:21.681Z,16.00
2023-05-23T11:55:57.781Z,19.83
2023-05-23T11:58:31.682Z,11.23
2023-05-23T12:01:03.389Z,12.75
2023-05-23T12:03:31.735Z,10.95
2023-05-23T12:05:58.975Z,16.77
2023-05-23T12:08:34.473Z,16.70
2023-05-23T12:11:02.885Z,12.95
2023-05-23T12:13:30.398Z,13.30
2023-05-23T12:15:59.047Z,13.10
2023-05-23T12:18:29.857Z,10.93
2023-05-23T12:21:03.682Z,6.93
2023-05-23T12:23:32.432Z,10.10
2023-05-23T12:26:02.041Z,13.18
2023-05-23T12:28:38.665Z,11.70
2023-05-23T12:31:16.767Z,11.55
2023-05-23T12:33:45.259Z,10.15
2023-05-23T12:36:12.587Z,6.88
2023-05-23T12:38:40.902Z,8.82
2023-05-23T12:41:12.076Z,11.95
2023-05-23T12:43:40.691Z,11.80
2023-05-23T12:46:10.246Z,14.77
2023-05-23T12:48:36.999Z,15.73
2023-05-23T12:51:03.932Z,12.85
2023-05-23T12:53:31.127Z,11.00
2023-05-23T12:55:57.891Z,9.38
2023-05-23T12:58:25.023Z,16.55
2023-05-23T13:00:51.798Z,13.73
2023-05-23T13:03:19.186Z,5.43
2023-05-23T13:05:46.090Z,9.98
2023-05-23T13:08:12.982Z,11.18
2023-05-23T13:10:40.033Z,10.55
2023-05-23T13:13:07.397Z,18.08
2023-05-23T13:15:34.256Z,7.28
2023-05-23T13:18:01.953Z,8.98
2023-05-23T13:20:30.320Z,13.23
2023-05-23T13:22:57.857Z,6.28
2023-05-23T13:25:25.922Z,14.38
2023-05-23T13:27:53.500Z,7.78
2023-05-23T13:30:21.141Z,11.77
2023-05-23T13:32:49.044Z,11.23
2023-05-23T13:35:17.830Z,8.02
2023-05-23T13:37:44.653Z,9.15
2023-05-23T13:40:19.192Z,13.70
2023-05-23T13:42:51.539Z,9.32
2023-05-23T13:45:19.373Z,11.05
2023-05-23T13:47:47.271Z,12.35
2023-05-23T13:50:14.306Z,9.18
2023-05-23T13:52:44.863Z,11.65
2023-05-23T13:55:12.792Z,9.27
2023-05-23T13:57:39.629Z,9.45
2023-05-23T14:00:08.736Z,6.25
2023-05-23T14:02:35.550Z,14.73
2023-05-23T14:05:02.446Z,11.90
2023-05-23T14:07:29.185Z,6.60
2023-05-23T14:09:56.038Z,6.68
2023-05-23T14:12:22.754Z,8.50
2023-05-23T14:14:49.505Z,7.07
2023-05-23T14:17:16.781Z,6.40
2023-05-23T14:19:44.007Z,12.88
2023-05-23T14:22:11.440Z,10.15
2023-05-23T14:24:38.430Z,6.82
2023-05-23T14:27:05.540Z,10.27
2023-05-23T14:29:32.924Z,10.82
2023-05-23T14:32:00.977Z,9.57
2023-05-23T14:34:27.845Z,7.50
2023-05-23T14:36:55.161Z,9.88
2023-05-23T14:39:21.972Z,9.80
2023-05-23T14:41:48.756Z,5.15
2023-05-23T14:44:15.566Z,9.68
2023-05-23T14:46:45.469Z,7.88
2023-05-23T14:49:12.200Z,8.55
2023-05-23T14:51:47.381Z,10.57
2023-05-23T14:54:17.003Z,5.50
2023-05-23T14:56:43.809Z,9.40
2023-05-23T14:59:11.042Z,11.13
2023-05-23T15:01:40.179Z,7.38
2023-05-23T15:04:09.115Z,10.50
2023-05-23T15:06:37.094Z,8.38
2023-05-23T15:09:04.289Z,7.55
2023-05-23T15:11:32.128Z,5.38
2023-05-23T15:14:08.221Z,12.82
2023-05-23T15:16:36.711Z,5.68
2023-05-23T15:19:05.144Z,10.93
2023-05-23T15:21:32.246Z,7.13
2023-05-23T15:23:59.868Z,5.95
2023-05-23T15:26:28.187Z,6.95
2023-05-23T15:28:55.194Z,7.38
2023-05-23T15:31:21.973Z,8.23
2023-05-23T15:33:48.808Z,5.38
2023-05-23T15:36:15.722Z,6.75
2023-05-23T15:38:43.661Z,11.70
2023-05-23T15:41:11.280Z,12.10
2023-05-23T15:43:38.018Z,11.63
2023-05-23T15:46:05.209Z,8.32
2023-05-23T15:48:31.956Z,7.47
2023-05-23T15:50:58.665Z,9.50
2023-05-23T15:53:25.476Z,9.00
2023-05-23T15:55:52.659Z,6.43
2023-05-23T15:58:19.346Z,8.38
2023-05-23T16:00:46.012Z,9.50
2023-05-23T16:03:12.776Z,8.95
2023-05-23T16:05:39.723Z,14.30
2023-05-23T16:08:06.480Z,10.60
2023-05-23T16:10:33.299Z,9.55
2023-05-23T16:13:00.033Z,18.08
2023-05-23T16:15:27.744Z,8.07
2023-05-23T16:17:54.493Z,5.18
2023-05-23T16:20:21.298Z,6.97
2023-05-23T16:22:48.175Z,8.38
2023-05-23T16:25:14.924Z,8.27
2023-05-23T16:27:41.695Z,9.20
2023-05-23T16:30:09.707Z,9.82
2023-05-23T16:32:37.327Z,4.43
2023-05-23T16:35:04.833Z,7.43
2023-05-23T16:37:31.542Z,12.15
2023-05-23T16:39:58.310Z,6.60
2023-05-23T16:42:25.038Z,6.57
2023-05-23T16:44:51.843Z,13.05
2023-05-23T16:47:18.963Z,5.72
2023-05-23T16:49:45.849Z,8.65
2023-05-23T16:52:12.639Z,9.48
2023-05-23T16:54:39.362Z,11.38
2023-05-23T16:57:06.722Z,16.13
2023-05-23T16:59:33.802Z,4.07
2023-05-23T17:02:00.557Z,10.90
2023-05-23T17:04:27.936Z,10.32
2023-05-23T17:06:55.630Z,10.77
2023-05-23T17:09:23.214Z,16.25
2023-05-23T17:11:52.115Z,4.65
2023-05-23T17:14:19.251Z,5.95
2023-05-23T17:16:46.360Z,11.52
2023-05-23T17:19:13.225Z,8.93
2023-05-23T17:21:40.350Z,9.80
2023-05-23T17:24:07.557Z,7.15
2023-05-23T17:26:35.602Z,13.60
2023-05-23T17:29:02.702Z,10.93
2023-05-23T17:31:30.816Z,18.02
2023-05-23T17:33:57.954Z,5.32
2023-05-23T17:36:24.782Z,8.10
2023-05-23T17:38:53.659Z,11.93
2023-05-23T17:41:23.107Z,11.32
2023-05-23T17:43:50.250Z,9.07
2023-05-23T17:46:16.968Z,9.00
2023-05-23T17:48:47.610Z,6.72
2023-05-23T17:51:15.602Z,9.18
2023-05-23T17:53:42.523Z,14.38
2023-05-23T17:56:09.565Z,12.52
2023-05-23T17:58:37.476Z,11.88
2023-05-23T18:01:05.038Z,10.30
2023-05-23T18:03:32.271Z,6.53
2023-05-23T18:05:59.088Z,10.40
2023-05-23T18:08:25.906Z,9.73
2023-05-23T18:10:52.987Z,12.10
2023-05-23T18:13:19.683Z,11.73
2023-05-23T18:15:46.838Z,10.65
2023-05-23T18:18:14.717Z,4.97
2023-05-23T18:20:41.978Z,4.82
2023-05-23T18:23:09.009Z,7.35
2023-05-23T18:25:35.718Z,5.20
2023-05-23T18:28:02.992Z,7.88
2023-05-23T18:30:29.764Z,8.32
2023-05-23T18:32:56.894Z,9.63
2023-05-23T18:35:25.583Z,11.27
2023-05-23T18:37:53.242Z,12.73
2023-05-23T18:40:21.600Z,9.00
2023-05-23T18:42:50.212Z,8.68
2023-05-23T18:45:17.009Z,14.48
2023-05-23T18:47:44.622Z,14.38
2023-05-23T18:50:12.935Z,4.25
2023-05-23T18:52:41.437Z,8.25
2023-05-23T18:55:09.666Z,9.90
2023-05-23T18:57:54.317Z,9.05
2023-05-23T19:00:27.395Z,8.63
2023-05-23T19:02:54.222Z,11.80
2023-05-23T19:05:21.553Z,8.75
2023-05-23T19:07:48.459Z,6.03
2023-05-23T19:10:15.346Z,4.95
2023-05-23T19:12:42.610Z,8.75
2023-05-23T19:15:10.700Z,6.53
2023-05-23T19:17:38.125Z,5.03
2023-05-23T19:20:05.555Z,5.75
2023-05-23T19:22:46.981Z,5.03
2023-05-23T19:25:18.395Z,8.95
2023-05-23T19:27:45.192Z,20.85
2023-05-23T19:30:12.559Z,6.55
2023-05-23T19:32:39.353Z,4.38
2023-05-23T19:35:06.524Z,14.10
2023-05-23T19:37:33.463Z,5.38
2023-05-23T19:40:01.609Z,4.80
2023-05-23T19:42:28.530Z,16.58
2023-05-23T19:44:55.262Z,6.85
2023-05-23T19:47:22.152Z,4.78
2023-05-23T19:49:49.110Z,3.83
2023-05-23T19:52:15.936Z,5.22
2023-05-23T19:54:42.710Z,9.93
2023-05-23T19:57:09.500Z,4.50
2023-05-23T19:59:37.602Z,7.30
2023-05-23T20:02:04.549Z,10.65
2023-05-23T20:04:31.410Z,14.38
2023-05-23T20:06:58.611Z,4.75
2023-05-23T20:09:25.728Z,5.65
2023-05-23T20:11:52.449Z,8.93
2023-05-23T20:14:19.229Z,12.10
2023-05-23T20:16:46.041Z,13.73
2023-05-23T20:19:12.819Z,12.68
2023-05-23T20:21:39.550Z,10.95
2023-05-23T20:24:06.704Z,11.48
2023-05-23T20:26:33.484Z,15.75
2023-05-23T20:29:01.008Z,5.00
2023-05-23T20:31:28.018Z,9.35
2023-05-23T20:33:54.838Z,11.88
2023-05-23T20:36:21.614Z,6.03
2023-05-23T20:38:48.556Z,8.57
2023-05-23T20:41:15.286Z,13.18
2023-05-23T20:43:44.524Z,15.23
2023-05-23T20:46:13.555Z,7.93
2023-05-23T20:48:41.503Z,16.25
2023-05-23T20:51:08.643Z,5.10
2023-05-23T20:53:35.813Z,13.65
2023-05-23T20:56:03.525Z,15.45
2023-05-23T20:58:31.000Z,9.00
2023-05-23T21:00:58.642Z,14.88
2023-05-23T21:03:25.696Z,10.02
2023-05-23T21:05:52.588Z,14.18
2023-05-23T21:08:19.372Z,9.48
2023-05-23T21:10:49.862Z,12.45
2023-05-23T21:13:18.525Z,6.68
2023-05-23T21:15:45.217Z,8.90
2023-05-23T21:18:12.086Z,14.23
2023-05-23T21:20:38.931Z,9.50
2023-05-23T21:23:05.705Z,14.90
2023-05-23T21:25:32.521Z,17.75
2023-05-23T21:27:59.259Z,8.63
2023-05-23T21:30:26.516Z,8.20
2023-05-23T21:32:53.338Z,11.93
2023-05-23T21:35:20.352Z,9.82
2023-05-23T21:37:47.081Z,4.55
2023-05-23T21:40:18.959Z,13.05
2023-05-23T21:42:45.793Z,10.75
2023-05-23T21:45:12.659Z,9.05
2023-05-23T21:47:39.506Z,9.98
2023-05-23T21:50:06.945Z,9.35
2023-05-23T21:52:33.702Z,17.75
2023-05-23T21:55:00.485Z,12.00
2023-05-23T21:57:27.281Z,8.27
2023-05-23T21:59:54.010Z,12.88
2023-05-23T22:02:20.760Z,16.67
2023-05-23T22:04:47.519Z,10.52
2023-05-23T22:07:14.230Z,6.75
2023-05-23T22:09:41.049Z,10.77
2023-05-23T22:12:08.176Z,16.13
2023-05-23T22:14:34.915Z,10.93
2023-05-23T22:17:03.786Z,14.25
2023-05-23T22:19:30.645Z,9.95
2023-05-23T22:21:58.123Z,11.32
2023-05-23T22:24:25.225Z,18.95
2023-05-23T22:26:51.984Z,8.20
2023-05-23T22:29:18.712Z,17.05
2023-05-23T22:31:46.716Z,14.07
2023-05-23T22:34:13.705Z,8.23
2023-05-23T22:36:40.876Z,12.60
2023-05-23T22:39:08.098Z,12.40
2023-05-23T22:41:35.847Z,8.45
2023-05-23T22:44:02.584Z,8.15
2023-05-23T22:46:29.638Z,11.95
2023-05-23T22:48:56.438Z,7.07
2023-05-23T22:51:23.091Z,10.50
2023-05-23T22:53:49.838Z,11.23
2023-05-23T22:56:17.217Z,10.00
2023-05-23T22:58:43.977Z,14.90
2023-05-23T23:01:10.862Z,2.53
2023-05-23T23:03:37.683Z,8.52
2023-05-23T23:06:06.280Z,12.75
2023-05-23T23:08:33.295Z,9.23
2023-05-23T23:11:00.067Z,11.13
2023-05-23T23:13:26.801Z,10.98
2023-05-23T23:15:54.362Z,11.77
2023-05-23T23:18:21.235Z,13.85
2023-05-23T23:20:48.339Z,9.27
2023-05-23T23:23:15.178Z,17.83
2023-05-23T23:25:41.928Z,14.52
2023-05-23T23:28:08.648Z,11.80
2023-05-23T23:30:36.108Z,20.20
2023-05-23T23:33:02.897Z,7.28
2023-05-23T23:35:29.623Z,9.57
2023-05-23T23:37:56.302Z,15.40
2023-05-23T23:40:23.034Z,14.93
2023-05-23T23:42:49.756Z,14.07
2023-05-23T23:45:16.509Z,7.40
2023-05-23T23:47:43.536Z,19.30
2023-05-23T23:50:10.483Z,3.80
2023-05-23T23:52:37.324Z,11.07
2023-05-23T23:55:04.679Z,9.27
2023-05-23T23:57:31.529Z,11.05
2023-05-23T23:59:58.361Z,8.85
